Time;durP1;ratioP1;P1;durP2;ratioP2;P2;SDS_P1;SDS_P2;PMS_P1;PMS_P2;Temp;Humidity;BMP_temperature;BMP_pressure;BME280_temperature;BME280_humidity;BME280_pressure;Samples;Min_cycle;Max_cycle;Signal;HPM_P1;HPM_P2
2022/06/14 00:03:50;;;;;;;;;;;;;;;19.47;57.43;100082.64;1648978;86;20230;-60
2022/06/14 00:06:53;;;;;;;;;;;;;;;19.44;57.55;100087.83;1667766;85;20192;-59
2022/06/14 00:09:58;;;;;;;;;;;;;;;19.42;57.65;100088.06;1676567;86;20291;-59
2022/06/14 00:13:03;;;;;;;;;;;;;;;19.39;57.75;100086.30;1676787;86;20214;-60
2022/06/14 00:16:07;;;;;;;;;;;;;;;19.34;57.79;100085.64;1710921;84;20193;-59
2022/06/14 00:19:14;;;;;;;;;;;;;;;19.27;57.82;100080.17;1711112;84;20240;-59
2022/06/14 00:22:19;;;;;;;;;;;;;;;19.22;57.88;100086.97;1676775;86;20191;-60
2022/06/14 00:25:43;;;;;;;;;;;;;;;19.14;57.95;100078.14;1710357;84;20220;-59
2022/06/14 00:28:50;;;;;;;;;;;;;;;19.07;58.01;100078.80;1676756;86;20183;-60
2022/06/14 00:31:54;;;;;;;;;;;;;;;18.99;58.07;100079.15;1711000;84;20196;-60
2022/06/14 00:35:00;;;;;;;;;;;;;;;18.90;58.12;100079.19;1676413;85;20187;-59
2022/06/14 00:38:05;;;;;;;;;;;;;;;18.85;58.26;100085.42;1710949;84;20188;-59
2022/06/14 00:41:11;;;;;;;;;;;;;;;18.76;58.28;100081.30;1711306;84;20184;-59
2022/06/14 00:44:23;;;;;;;;;;;;;;;18.72;58.43;100080.63;1676470;86;20278;-60
2022/06/14 00:47:27;;;;;;;;;;;;;;;18.65;58.46;100081.25;1711131;84;20501;-60
2022/06/14 00:50:39;;;;;;;;;;;;;;;18.58;58.54;100077.22;1676725;86;20227;-60
2022/06/14 00:53:56;;;;;;;;;;;;;;;18.53;58.66;100074.30;1710986;84;20188;-60
2022/06/14 00:57:06;;;;;;;;;;;;;;;18.49;58.85;100079.16;1711153;84;20193;-59
2022/06/14 01:00:16;;;;;;;;;;;;;;;18.47;59.08;100077.98;1710740;84;20224;-60
2022/06/14 01:03:24;;;;;;;;;;;;;;;18.45;59.12;100080.17;1676679;86;20516;-60
2022/06/14 01:06:47;;;;;;;;;;;;;;;18.40;59.18;100071.70;1710860;84;20193;-60
2022/06/14 01:09:55;;;;;;;;;;;;;;;18.39;59.36;100074.70;1710261;83;20192;-59
2022/06/14 01:13:02;;;;;;;;;;;;;;;18.40;59.55;100079.16;1676555;86;20195;-60
2022/06/14 01:16:09;;;;;;;;;;;;;;;18.37;59.61;100072.67;1654563;87;20568;-60
2022/06/14 01:19:19;;;;;;;;;;;;;;;18.32;59.59;100073.91;1676809;86;20288;-60
2022/06/14 01:22:27;;;;;;;;;;;;;;;18.28;59.63;100072.16;1654460;87;20260;-60
2022/06/14 01:25:32;;;;;;;;;;;;;;;18.22;59.64;100074.45;1676375;86;20183;-60
2022/06/14 01:28:37;;;;;;;;;;;;;;;18.19;59.70;100072.16;1654656;87;20486;-60
2022/06/14 01:31:42;;;;;;;;;;;;;;;18.15;59.85;100075.09;1676760;86;20508;-60
2022/06/14 01:34:49;;;;;;;;;;;;;;;18.14;59.95;100072.56;1654389;87;20187;-59
2022/06/14 01:37:55;;;;;;;;;;;;;;;18.12;60.11;100070.02;1676832;86;20207;-60
2022/06/14 01:41:10;;;;;;;;;;;;;;;18.14;60.21;100068.41;1642082;87;20193;-60
2022/06/14 01:44:34;;;;;;;;;;;;;;;18.11;60.30;100064.16;1676513;86;20334;-60
2022/06/14 01:47:57;;;;;;;;;;;;;;;18.12;60.40;100067.78;1653484;87;20241;-60
2022/06/14 01:54:34;;;;;;;;;;;;;;;18.10;60.58;100071.31;1676809;86;20176;-59
2022/06/14 01:57:44;;;;;;;;;;;;;;;18.11;60.70;100069.69;1672428;86;20221;-60
2022/06/14 02:00:57;;;;;;;;;;;;;;;18.10;60.72;100065.24;1676566;86;20175;-59
2022/06/14 02:04:39;;;;;;;;;;;;;;;18.09;60.76;100066.34;1653032;86;20201;-60
2022/06/14 02:07:56;;;;;;;;;;;;;;;18.08;60.82;100064.63;1675990;86;20227;-60
2022/06/14 02:11:19;;;;;;;;;;;;;;;18.07;60.86;100066.23;1675873;84;20539;-60
2022/06/14 02:14:32;;;;;;;;;;;;;;;18.07;61.07;100068.48;1711076;84;20196;-60
2022/06/14 02:17:45;;;;;;;;;;;;;;;18.11;61.19;100060.56;1676827;86;20203;-60
2022/06/14 02:20:54;;;;;;;;;;;;;;;18.15;61.30;100056.23;1711422;84;20199;-60
2022/06/14 02:24:05;;;;;;;;;;;;;;;18.18;61.31;100062.69;1711264;84;20196;-60
2022/06/14 02:27:28;;;;;;;;;;;;;;;18.20;61.29;100059.16;1676455;86;20543;-60
2022/06/14 02:30:39;;;;;;;;;;;;;;;18.22;61.35;100059.21;1710641;84;20445;-60
2022/06/14 02:33:55;;;;;;;;;;;;;;;18.26;61.42;100064.61;1676253;86;20211;-60
2022/06/14 02:37:09;;;;;;;;;;;;;;;18.31;61.46;100058.36;1710790;84;20188;-60
2022/06/14 02:40:26;;;;;;;;;;;;;;;18.34;61.54;100061.52;1710470;84;20248;-60
2022/06/14 02:43:42;;;;;;;;;;;;;;;18.38;61.64;100060.52;1709879;84;20188;-60
2022/06/14 02:46:48;;;;;;;;;;;;;;;18.41;61.74;100060.91;1710723;84;20220;-60
2022/06/14 02:50:06;;;;;;;;;;;;;;;18.52;61.91;100064.27;1710666;84;20268;-59
2022/06/14 02:53:20;;;;;;;;;;;;;;;18.62;62.04;100063.17;1676060;86;20231;-60
2022/06/14 02:56:30;;;;;;;;;;;;;;;18.75;62.08;100063.52;1710565;84;20221;-60
2022/06/14 02:59:38;;;;;;;;;;;;;;;18.83;62.06;100062.65;1676112;86;20535;-59
2022/06/14 03:03:10;;;;;;;;;;;;;;;18.91;62.14;100058.15;1710781;84;20535;-60
2022/06/14 03:06:42;;;;;;;;;;;;;;;19.03;62.19;100059.54;1699460;84;20232;-59
2022/06/14 03:09:47;;;;;;;;;;;;;;;19.11;62.21;100055.03;1676121;86;20203;-60
2022/06/14 03:12:55;;;;;;;;;;;;;;;19.22;62.30;100065.30;1695263;84;20589;-60
2022/06/14 03:16:21;;;;;;;;;;;;;;;19.30;62.26;100061.67;1710661;84;20196;-58
2022/06/14 03:19:35;;;;;;;;;;;;;;;19.33;62.18;100058.42;1710624;84;20240;-58
2022/06/14 03:23:04;;;;;;;;;;;;;;;19.40;62.18;100061.08;1710723;84;20616;-59
2022/06/14 03:26:13;;;;;;;;;;;;;;;19.49;62.27;100062.40;1710602;84;20241;-58
2022/06/14 03:29:24;;;;;;;;;;;;;;;19.58;62.30;100054.56;1676180;86;20210;-58
2022/06/14 03:32:43;;;;;;;;;;;;;;;19.66;62.40;100059.22;1710158;84;20312;-58
2022/06/14 03:35:56;;;;;;;;;;;;;;;19.77;62.47;100056.12;1710825;84;20216;-58
2022/06/14 03:39:08;;;;;;;;;;;;;;;19.88;62.49;100056.65;1676217;86;20235;-59
2022/06/14 03:42:15;;;;;;;;;;;;;;;19.99;62.51;100058.03;1710325;84;20201;-58
2022/06/14 03:45:22;;;;;;;;;;;;;;;20.11;62.55;100058.83;1676108;86;20441;-58
2022/06/14 03:48:26;;;;;;;;;;;;;;;20.22;62.57;100061.30;1709666;84;20225;-58
2022/06/14 03:51:51;;;;;;;;;;;;;;;20.32;62.58;100052.65;1676120;86;20560;-57
2022/06/14 03:55:15;;;;;;;;;;;;;;;20.41;62.57;100054.47;1710291;84;20264;-60
2022/06/14 03:58:57;;;;;;;;;;;;;;;20.53;62.61;100056.68;1710633;84;20218;-58
2022/06/14 04:02:53;;;;;;;;;;;;;;;20.65;62.66;100061.63;1676188;86;20188;-58
2022/06/14 04:05:48;;;;;;;;;;;;;;;20.75;62.68;100055.73;1710716;84;20517;-58
2022/06/14 04:09:01;;;;;;;;;;;;;;;20.85;62.68;100060.64;1710652;84;20219;-58
2022/06/14 04:12:11;;;;;;;;;;;;;;;20.96;62.71;100065.33;1705540;84;20232;-58
2022/06/14 04:15:48;;;;;;;;;;;;;;;21.06;62.70;100059.92;1668216;85;20191;-58
2022/06/14 04:19:16;;;;;;;;;;;;;;;21.16;62.75;100057.86;1626227;88;20198;-58
2022/06/14 04:22:47;;;;;;;;;;;;;;;21.30;62.83;100055.89;1667355;86;20219;-59
2022/06/14 04:26:01;;;;;;;;;;;;;;;21.45;62.88;100058.94;1667524;86;20207;-59
2022/06/14 04:29:25;;;;;;;;;;;;;;;21.60;62.89;100055.52;1644503;87;20551;-59
2022/06/14 04:32:48;;;;;;;;;;;;;;;21.73;62.90;100054.63;1652671;86;20226;-59
2022/06/14 04:35:59;;;;;;;;;;;;;;;21.88;62.91;100061.84;1652616;87;20208;-58
2022/06/14 04:38:59;;;;;;;;;;;;;;;22.03;62.83;100061.21;1652667;87;20524;-58
2022/06/14 04:41:59;;;;;;;;;;;;;;;22.15;62.82;100060.56;1675437;86;20203;-57
2022/06/14 04:45:17;;;;;;;;;;;;;;;22.26;62.81;100055.94;1668787;84;20267;-56
2022/06/14 04:48:26;;;;;;;;;;;;;;;22.38;62.73;100053.84;1670661;85;20207;-57
2022/06/14 04:51:41;;;;;;;;;;;;;;;22.49;62.71;100057.05;1674806;85;20231;-58
2022/06/14 04:54:50;;;;;;;;;;;;;;;22.62;62.65;100058.08;1673349;86;20251;-58
2022/06/14 04:58:00;;;;;;;;;;;;;;;22.74;62.61;100060.19;1674594;84;20553;-53
2022/06/14 05:01:10;;;;;;;;;;;;;;;22.85;62.56;100058.61;1646818;87;20602;-57
2022/06/14 05:04:25;;;;;;;;;;;;;;;22.98;62.53;100057.34;1670381;83;20282;-58
2022/06/14 05:07:53;;;;;;;;;;;;;;;23.08;62.45;100049.07;1665897;86;20207;-57
2022/06/14 05:11:17;;;;;;;;;;;;;;;23.20;62.44;100056.70;1665658;85;20220;-57
2022/06/14 05:14:32;;;;;;;;;;;;;;;23.33;62.39;100060.49;1663377;85;20219;-55
2022/06/14 05:17:48;;;;;;;;;;;;;;;23.44;62.34;100057.53;1638150;87;20245;-57
2022/06/14 05:20:59;;;;;;;;;;;;;;;23.55;62.28;100057.04;1602697;88;20221;-59
2022/06/14 05:24:04;;;;;;;;;;;;;;;23.67;62.23;100060.50;1607873;87;20667;-60
2022/06/14 05:27:31;;;;;;;;;;;;;;;23.78;62.18;100060.00;1654018;85;20247;-54
2022/06/14 05:30:57;;;;;;;;;;;;;;;23.89;62.15;100061.75;1641139;87;20281;-50
2022/06/14 05:34:19;;;;;;;;;;;;;;;23.99;62.05;100066.05;1602186;89;20230;-56
2022/06/14 05:37:57;;;;;;;;;;;;;;;24.11;62.07;100066.66;1630744;86;20219;-59
2022/06/14 05:41:07;;;;;;;;;;;;;;;24.21;62.01;100063.38;1613138;87;20210;-59
2022/06/14 05:44:35;;;;;;;;;;;;;;;24.36;62.01;100063.98;1643049;87;20257;-62
2022/06/14 05:48:07;;;;;;;;;;;;;;;24.56;61.85;100066.30;1878886;76;20524;-59
2022/06/14 05:51:17;;;;;;;;;;;;;;;24.58;61.75;100064.08;1800231;77;20208;-56
2022/06/14 05:54:33;;;;;;;;;;;;;;;24.66;61.67;100062.17;1800919;79;20273;-53
2022/06/14 05:57:43;;;;;;;;;;;;;;;24.75;61.58;100068.09;1744443;82;20213;-59
2022/06/14 06:00:57;;;;;;;;;;;;;;;24.84;61.49;100071.48;1811665;78;20201;-60
2022/06/14 06:04:13;;;;;;;;;;;;;;;24.92;61.38;100061.69;1745090;81;20218;-60
2022/06/14 06:07:18;;;;;;;;;;;;;;;25.00;61.32;100066.20;1815233;79;20213;-59
2022/06/14 06:10:31;;;;;;;;;;;;;;;25.08;61.25;100062.55;1823087;78;20220;-60
2022/06/14 06:13:40;;;;;;;;;;;;;;;25.16;61.20;100064.25;1805709;78;20296;-58
2022/06/14 06:20:26;;;;;;;;;;;;;;;25.36;61.03;100064.83;1810654;77;20208;-59
2022/06/14 06:23:43;;;;;;;;;;;;;;;25.44;60.90;100060.06;1836845;77;20527;-59
2022/06/14 06:26:49;;;;;;;;;;;;;;;25.54;60.79;100055.88;1810292;78;20202;-59
2022/06/14 06:30:02;;;;;;;;;;;;;;;25.63;60.70;100056.42;1821329;77;20537;-53
2022/06/14 06:33:10;;;;;;;;;;;;;;;25.73;60.60;100052.21;1816409;77;20591;-57
2022/06/14 06:36:35;;;;;;;;;;;;;;;25.84;60.46;100055.28;1815145;77;20322;-58
2022/06/14 06:39:56;;;;;;;;;;;;;;;25.92;60.32;100045.44;1815821;77;20273;-57
2022/06/14 06:43:20;;;;;;;;;;;;;;;26.00;60.21;100049.09;1778676;77;20303;-57
2022/06/14 06:46:26;;;;;;;;;;;;;;;26.08;60.06;100045.16;1822982;77;20191;-56
2022/06/14 06:49:36;;;;;;;;;;;;;;;26.16;59.97;100047.34;1831061;77;20211;-56
2022/06/14 06:52:56;;;;;;;;;;;;;;;26.25;59.80;100052.66;1789187;79;20557;-55
2022/06/14 06:56:32;;;;;;;;;;;;;;;26.32;59.63;100051.78;1803249;78;20571;-58
2022/06/14 06:59:41;;;;;;;;;;;;;;;26.40;59.46;100051.19;1771640;80;20239;-56
2022/06/14 07:03:12;;;;;;;;;;;;;;;26.52;59.36;100051.41;1798905;78;20242;-57
2022/06/14 07:06:25;;;;;;;;;;;;;;;26.62;59.18;100043.80;1807855;78;20203;-56
2022/06/14 07:09:46;;;;;;;;;;;;;;;26.71;58.97;100045.45;1730470;81;20564;-57
2022/06/14 07:12:58;;;;;;;;;;;;;;;26.82;58.86;100045.66;1841806;78;20285;-54
2022/06/14 07:16:12;;;;;;;;;;;;;;;26.94;58.68;100046.98;1841875;78;20289;-56
2022/06/14 07:19:34;;;;;;;;;;;;;;;27.04;58.44;100054.52;1804213;78;20606;-57
2022/06/14 07:22:51;;;;;;;;;;;;;;;27.12;58.19;100054.74;1782363;79;20215;-57
2022/06/14 07:26:06;;;;;;;;;;;;;;;27.18;57.98;100052.16;1786459;78;20250;-57
2022/06/14 07:29:20;;;;;;;;;;;;;;;27.27;57.78;100047.65;1753165;81;20236;-57
2022/06/14 07:32:36;;;;;;;;;;;;;;;27.36;57.57;100051.50;1781313;78;20190;-56
2022/06/14 07:36:00;;;;;;;;;;;;;;;27.45;57.37;100051.13;1798288;77;20226;-57
2022/06/14 07:39:24;;;;;;;;;;;;;;;27.55;57.10;100048.24;1805279;78;20293;-58
2022/06/14 07:42:44;;;;;;;;;;;;;;;27.63;56.81;100047.61;1770882;80;20571;-57
2022/06/14 07:45:45;;;;;;;;;;;;;;;27.70;56.45;100055.70;1768790;81;20619;-58
2022/06/14 07:48:55;;;;;;;;;;;;;;;27.78;56.14;100062.92;1767097;80;20502;-56
2022/06/14 07:52:03;;;;;;;;;;;;;;;27.80;55.80;100061.21;1769166;80;20271;-57
2022/06/14 07:55:29;;;;;;;;;;;;;;;27.79;55.50;100063.20;1713907;81;20586;-57
2022/06/14 07:58:50;;;;;;;;;;;;;;;27.86;55.22;100062.27;1741002;81;20217;-57
2022/06/14 08:02:00;;;;;;;;;;;;;;;27.97;55.06;100058.84;1735219;81;20238;-57
2022/06/14 08:05:09;;;;;;;;;;;;;;;28.10;54.87;100054.48;1780079;80;20213;-56
2022/06/14 08:08:13;;;;;;;;;;;;;;;28.25;54.61;100055.14;1815361;78;20617;-58
2022/06/14 08:11:33;;;;;;;;;;;;;;;28.43;54.46;100057.73;1769634;81;20264;-56
2022/06/14 08:14:57;;;;;;;;;;;;;;;28.59;54.16;100055.03;1779559;78;20308;-56
2022/06/14 08:18:06;;;;;;;;;;;;;;;28.75;53.83;100041.82;1713621;81;20222;-56
2022/06/14 08:21:24;;;;;;;;;;;;;;;28.92;53.41;100046.95;1830917;78;20491;-54
2022/06/14 08:24:32;;;;;;;;;;;;;;;29.03;52.98;100042.23;1842338;78;20277;-54
2022/06/14 08:27:43;;;;;;;;;;;;;;;29.17;52.75;100040.39;1798018;77;20210;-55
2022/06/14 08:31:00;;;;;;;;;;;;;;;29.35;52.46;100028.81;1769939;80;20580;-56
2022/06/14 08:34:30;;;;;;;;;;;;;;;29.57;52.15;100028.14;1781928;78;20248;-57
2022/06/14 08:38:08;;;;;;;;;;;;;;;29.77;51.74;100027.80;1799080;78;20308;-58
2022/06/14 08:41:18;;;;;;;;;;;;;;;29.91;51.31;100023.86;1806390;77;20268;-56
2022/06/14 08:44:32;;;;;;;;;;;;;;;29.97;50.88;100029.66;1802462;77;20788;-56
2022/06/14 08:47:49;;;;;;;;;;;;;;;29.99;50.49;100024.55;1802638;78;20214;-57
2022/06/14 08:51:21;;;;;;;;;;;;;;;30.14;50.23;100023.42;1803747;77;20592;-56
2022/06/14 08:54:51;;;;;;;;;;;;;;;30.29;49.81;100014.65;1806806;78;20273;-56
2022/06/14 08:58:27;;;;;;;;;;;;;;;30.48;49.55;100011.13;1794931;78;20217;-57
2022/06/14 09:02:02;;;;;;;;;;;;;;;30.62;49.18;100009.97;1789450;78;20554;-57
2022/06/14 09:05:23;;;;;;;;;;;;;;;30.53;48.62;100017.52;1815962;77;20221;-57
2022/06/14 09:08:52;;;;;;;;;;;;;;;30.29;48.25;100011.26;1830981;77;20249;-57
2022/06/14 09:12:02;;;;;;;;;;;;;;;30.03;47.95;100007.23;1843441;78;20242;-56
2022/06/14 09:15:26;;;;;;;;;;;;;;;29.96;47.79;100019.53;1796279;78;20202;-56
2022/06/14 09:18:52;;;;;;;;;;;;;;;30.01;47.56;100005.88;1810366;78;20217;-56
2022/06/14 09:22:17;;;;;;;;;;;;;;;30.12;47.26;100001.70;1821239;78;20488;-55
2022/06/14 09:25:37;;;;;;;;;;;;;;;30.27;46.94;100009.31;1757434;81;20216;-56
2022/06/14 09:28:51;;;;;;;;;;;;;;;30.48;46.64;100008.30;1814305;77;20264;-56
2022/06/14 09:32:09;;;;;;;;;;;;;;;30.67;46.24;100001.94;1805727;79;20212;-55
2022/06/14 09:35:46;;;;;;;;;;;;;;;30.76;45.89;100000.63;1791836;79;20213;-57
2022/06/14 09:39:13;;;;;;;;;;;;;;;30.89;45.63;100004.03;1798306;78;20288;-56
2022/06/14 09:42:45;;;;;;;;;;;;;;;31.07;45.25;99997.35;1732136;82;20241;-55
2022/06/14 09:46:06;;;;;;;;;;;;;;;31.10;44.81;100000.95;1738044;82;20550;-55
2022/06/14 09:49:34;;;;;;;;;;;;;;;31.00;44.38;99995.56;1786828;78;20229;-54
2022/06/14 09:52:59;;;;;;;;;;;;;;;30.99;44.21;99989.62;1799657;78;20253;-54
2022/06/14 09:56:25;;;;;;;;;;;;;;;31.16;43.94;99988.38;1800359;79;20189;-56
2022/06/14 09:59:36;;;;;;;;;;;;;;;31.29;43.72;99977.55;1770819;81;20708;-54
2022/06/14 10:03:02;;;;;;;;;;;;;;;31.34;43.36;99981.70;1803154;78;20201;-54
2022/06/14 10:06:20;;;;;;;;;;;;;;;31.39;43.21;99975.92;1800621;78;20789;-56
2022/06/14 10:09:44;;;;;;;;;;;;;;;31.50;42.91;99980.16;1819999;78;20197;-55
2022/06/14 10:13:11;;;;;;;;;;;;;;;31.60;42.63;99974.23;1790227;80;20257;-57
2022/06/14 10:16:34;;;;;;;;;;;;;;;31.75;42.38;99975.22;1789225;80;20206;-55
2022/06/14 10:19:47;;;;;;;;;;;;;;;31.91;42.17;99977.92;1783296;80;20566;-56
2022/06/14 10:23:23;;;;;;;;;;;;;;;32.04;41.94;99964.23;1777334;80;20320;-56
2022/06/14 10:30:42;;;;;;;;;;;;;;;32.13;41.33;99965.70;1798804;79;20499;-57
2022/06/14 10:33:59;;;;;;;;;;;;;;;32.03;41.00;99960.55;1799380;78;20210;-56
2022/06/14 10:37:13;;;;;;;;;;;;;;;31.78;40.68;99958.42;1788274;80;20605;-55
2022/06/14 10:40:42;;;;;;;;;;;;;;;31.69;40.56;99959.54;1800725;78;20292;-56
2022/06/14 10:43:54;;;;;;;;;;;;;;;31.65;40.37;99954.28;1761015;81;20532;-56
2022/06/14 10:47:15;;;;;;;;;;;;;;;31.83;40.29;99948.94;1783010;79;20248;-56
2022/06/14 10:51:00;;;;;;;;;;;;;;;32.06;40.04;99946.34;1802762;78;20260;-56
2022/06/14 10:54:17;;;;;;;;;;;;;;;32.19;39.71;99943.94;1805432;78;20535;-54
2022/06/14 10:57:40;;;;;;;;;;;;;;;32.27;39.39;99937.46;1823593;78;20271;-56
2022/06/14 11:00:50;;;;;;;;;;;;;;;32.34;39.15;99932.16;1786388;79;20620;-56
2022/06/14 11:03:59;;;;;;;;;;;;;;;32.46;38.96;99932.37;1769054;79;20259;-56
2022/06/14 11:07:26;;;;;;;;;;;;;;;32.71;38.70;99925.91;1773627;79;20240;-55
2022/06/14 11:10:40;;;;;;;;;;;;;;;33.04;38.56;99934.77;1773757;81;20211;-54
2022/06/14 11:14:12;;;;;;;;;;;;;;;33.15;38.08;99924.75;1774175;81;20236;-55
2022/06/14 11:17:55;;;;;;;;;;;;;;;33.00;37.67;99936.02;1722439;81;20247;-56
2022/06/14 11:21:17;;;;;;;;;;;;;;;32.78;37.43;99947.50;1708536;84;20250;-53
2022/06/14 11:24:37;;;;;;;;;;;;;;;32.40;37.16;99936.53;1776875;80;20206;-55
2022/06/14 11:28:00;;;;;;;;;;;;;;;32.09;37.21;99951.34;1790581;79;20217;-55
2022/06/14 11:31:33;;;;;;;;;;;;;;;31.89;37.40;99951.91;1792017;79;20224;-55
2022/06/14 11:35:00;;;;;;;;;;;;;;;31.94;37.50;99944.69;1747219;81;20254;-56
2022/06/14 11:38:25;;;;;;;;;;;;;;;31.86;37.51;99953.98;1796533;79;20244;-56
2022/06/14 11:41:34;;;;;;;;;;;;;;;31.82;37.71;99964.27;1798072;78;20209;-56
2022/06/14 11:44:54;;;;;;;;;;;;;;;31.81;37.84;99952.67;1822310;78;20645;-55
2022/06/14 11:48:05;;;;;;;;;;;;;;;31.70;37.83;99960.63;1790015;78;20209;-53
2022/06/14 11:51:28;;;;;;;;;;;;;;;31.49;37.89;99951.01;1786868;79;20241;-55
2022/06/14 11:55:01;;;;;;;;;;;;;;;31.31;38.03;99967.64;1780624;80;20584;-56
2022/06/14 11:58:30;;;;;;;;;;;;;;;31.14;38.20;99960.98;1786608;79;20492;-53
2022/06/14 12:01:55;;;;;;;;;;;;;;;30.99;38.33;99952.87;1811095;77;20517;-55
2022/06/14 12:05:26;;;;;;;;;;;;;;;30.92;38.43;99963.20;1808920;79;20834;-55
2022/06/14 12:08:45;;;;;;;;;;;;;;;31.00;38.57;99964.45;1812104;79;20197;-54
2022/06/14 12:12:02;;;;;;;;;;;;;;;31.09;38.43;99962.52;1781619;80;20214;-54
2022/06/14 12:15:15;;;;;;;;;;;;;;;31.03;38.29;99958.16;1786374;78;20235;-55
2022/06/14 12:18:22;;;;;;;;;;;;;;;30.90;38.20;99951.97;1793007;78;20214;-54
2022/06/14 12:21:39;;;;;;;;;;;;;;;30.76;38.26;99953.98;1801076;78;20197;-54
2022/06/14 12:28:27;;;;;;;;;;;;;;;30.37;38.34;99951.77;1757095;81;20255;-53
2022/06/14 12:31:59;;;;;;;;;;;;;;;30.35;38.50;99955.50;1770640;81;20419;-56
2022/06/14 12:35:21;;;;;;;;;;;;;;;30.30;38.50;99950.77;1770835;81;20540;-53
2022/06/14 12:38:29;;;;;;;;;;;;;;;30.16;38.59;99956.98;1771578;79;20207;-52
2022/06/14 12:41:38;;;;;;;;;;;;;;;30.15;38.69;99974.25;1791075;78;20269;-53
2022/06/14 12:44:53;;;;;;;;;;;;;;;30.09;38.75;99979.74;1734749;82;20212;-53
2022/06/14 12:48:13;;;;;;;;;;;;;;;29.95;38.86;99978.34;1805573;79;20253;-54
2022/06/14 12:51:30;;;;;;;;;;;;;;;29.91;39.02;99982.08;1740089;82;20269;-53
2022/06/14 12:55:02;;;;;;;;;;;;;;;29.91;39.16;99981.52;1811057;79;20253;-53
2022/06/14 12:58:46;;;;;;;;;;;;;;;29.88;39.24;99983.55;1800975;79;20194;-54
2022/06/14 13:01:58;;;;;;;;;;;;;;;29.75;39.28;99994.84;1788778;79;20217;-54
2022/06/14 13:05:10;;;;;;;;;;;;;;;29.62;39.39;99996.42;1745724;82;20617;-53
2022/06/14 13:08:26;;;;;;;;;;;;;;;29.49;39.41;99990.77;1769732;81;20564;-53
2022/06/14 13:11:46;;;;;;;;;;;;;;;29.43;39.57;99997.05;1767416;79;20265;-54
2022/06/14 13:15:10;;;;;;;;;;;;;;;29.42;39.69;99994.55;1738763;82;20198;-53
2022/06/14 13:18:29;;;;;;;;;;;;;;;29.37;39.81;99998.30;1739303;82;20206;-53
2022/06/14 13:21:46;;;;;;;;;;;;;;;29.39;39.95;99996.58;1751111;82;20562;-52
2022/06/14 13:24:56;;;;;;;;;;;;;;;29.40;39.99;99993.45;1750670;82;20253;-55
2022/06/14 13:28:15;;;;;;;;;;;;;;;29.39;40.06;100000.81;1716663;83;20220;-55
2022/06/14 13:31:33;;;;;;;;;;;;;;;29.29;40.12;100001.82;1739344;82;20268;-55
2022/06/14 13:34:44;;;;;;;;;;;;;;;29.20;40.23;100005.08;1738305;82;20210;-55
2022/06/14 13:37:55;;;;;;;;;;;;;;;29.10;40.29;100021.59;1773077;79;20573;-55
2022/06/14 13:41:09;;;;;;;;;;;;;;;29.07;40.40;100028.41;1792894;79;20226;-55
2022/06/14 13:44:24;;;;;;;;;;;;;;;28.99;40.42;100038.93;1776141;79;20261;-57
2022/06/14 13:47:38;;;;;;;;;;;;;;;28.97;40.56;100027.96;1779479;79;20211;-53
2022/06/14 13:50:48;;;;;;;;;;;;;;;29.02;40.66;100039.73;1763747;79;20261;-52
2022/06/14 13:54:11;;;;;;;;;;;;;;;29.01;40.70;100046.52;1792724;78;20590;-54
2022/06/14 13:57:29;;;;;;;;;;;;;;;28.81;40.62;100062.33;1780988;79;20229;-54
2022/06/14 14:01:03;;;;;;;;;;;;;;;28.43;40.60;100076.05;1749990;81;20615;-51
2022/06/14 14:04:38;;;;;;;;;;;;;;;28.03;40.72;100082.13;1758616;81;20612;-54
2022/06/14 14:07:59;;;;;;;;;;;;;;;27.64;40.97;100077.95;1779597;79;20207;-54
2022/06/14 14:11:11;;;;;;;;;;;;;;;27.35;41.15;100086.95;1768166;80;20211;-54
2022/06/14 14:14:25;;;;;;;;;;;;;;;27.14;41.34;100100.83;1748753;80;20214;-53
2022/06/14 14:17:45;;;;;;;;;;;;;;;26.89;41.50;100115.88;1753332;80;20465;-52
2022/06/14 14:21:06;;;;;;;;;;;;;;;26.59;41.63;100102.50;1757823;81;20203;-52
2022/06/14 14:24:41;;;;;;;;;;;;;;;26.26;41.80;100118.89;1774778;79;20593;-52
2022/06/14 14:28:12;;;;;;;;;;;;;;;25.98;42.01;100121.45;1798910;80;20213;-53
2022/06/14 14:31:37;;;;;;;;;;;;;;;25.75;42.17;100126.25;1765807;81;20251;-54
2022/06/14 14:34:55;;;;;;;;;;;;;;;25.45;42.29;100113.62;1771537;81;20212;-54
2022/06/14 14:38:10;;;;;;;;;;;;;;;25.25;42.54;100096.73;1746249;82;20203;-55
2022/06/14 14:41:41;;;;;;;;;;;;;;;25.12;42.76;100105.71;1769790;80;20211;-54
2022/06/14 14:44:48;;;;;;;;;;;;;;;25.03;42.96;100106.25;1805788;79;20308;-55
2022/06/14 14:48:03;;;;;;;;;;;;;;;24.98;43.15;100117.44;1806903;79;20217;-55
2022/06/14 14:51:32;;;;;;;;;;;;;;;24.92;43.28;100132.55;1807108;79;20549;-55
2022/06/14 14:54:48;;;;;;;;;;;;;;;24.84;43.33;100123.84;1786454;77;20233;-55
2022/06/14 14:58:00;;;;;;;;;;;;;;;24.78;43.48;100129.14;1811389;79;20224;-56
2022/06/14 15:05:45;;;;;;;;;;;;;;;24.60;43.75;100132.38;1703042;82;20216;-56
2022/06/14 15:08:36;;;;;;;;;;;;;;;24.52;43.89;100135.70;1770300;81;20314;-55
2022/06/14 15:11:48;;;;;;;;;;;;;;;24.48;44.01;100145.20;1770324;81;20239;-56
2022/06/14 15:15:14;;;;;;;;;;;;;;;24.40;44.17;100156.94;1757388;80;20556;-55
2022/06/14 15:21:55;;;;;;;;;;;;;;;24.39;44.49;100200.01;1770642;81;20564;-56
2022/06/14 15:25:02;;;;;;;;;;;;;;;24.47;44.48;100172.06;1770299;81;20223;-56
2022/06/14 15:28:22;;;;;;;;;;;;;;;24.56;44.59;100173.25;1769956;81;20299;-54
2022/06/14 15:31:56;;;;;;;;;;;;;;;24.67;44.62;100191.23;1770547;81;20603;-56
2022/06/14 15:35:09;;;;;;;;;;;;;;;24.54;44.49;100189.47;1770569;81;20523;-54
2022/06/14 15:38:24;;;;;;;;;;;;;;;24.19;44.49;100173.31;1770275;81;20556;-55
2022/06/14 15:41:37;;;;;;;;;;;;;;;23.88;44.61;100192.32;1770962;81;20536;-56
2022/06/14 15:44:43;;;;;;;;;;;;;;;23.59;44.73;100183.40;1799660;78;20553;-54
2022/06/14 15:47:47;;;;;;;;;;;;;;;23.37;44.87;100172.84;1786465;78;20560;-54
2022/06/14 15:50:52;;;;;;;;;;;;;;;23.18;45.08;100179.05;1770145;81;20256;-55
2022/06/14 15:54:01;;;;;;;;;;;;;;;23.04;45.30;100184.77;1770268;81;20263;-55
2022/06/14 15:57:12;;;;;;;;;;;;;;;23.01;45.45;100192.23;1772964;81;20624;-56
2022/06/14 16:00:26;;;;;;;;;;;;;;;22.93;45.56;100184.36;1770829;81;20286;-55
2022/06/14 16:03:47;;;;;;;;;;;;;;;22.91;45.67;100180.40;1770299;80;20243;-56
2022/06/14 16:07:09;;;;;;;;;;;;;;;23.03;45.76;100191.44;1748774;80;20570;-56
2022/06/14 16:10:16;;;;;;;;;;;;;;;23.15;45.85;100206.94;1831588;78;20262;-56
2022/06/14 16:13:28;;;;;;;;;;;;;;;23.32;45.92;100184.54;1841003;78;20246;-55
2022/06/14 16:16:46;;;;;;;;;;;;;;;23.48;45.90;100190.00;1844496;77;20202;-56
2022/06/14 16:20:04;;;;;;;;;;;;;;;23.64;45.69;100198.00;1846698;78;20539;-55
2022/06/14 16:23:12;;;;;;;;;;;;;;;23.54;45.56;100188.11;1832108;78;20196;-55
2022/06/14 16:26:23;;;;;;;;;;;;;;;23.42;45.65;100215.39;1837728;78;20176;-55
2022/06/14 16:29:35;;;;;;;;;;;;;;;23.27;45.69;100213.27;1834395;78;20207;-55
2022/06/14 16:33:08;;;;;;;;;;;;;;;23.11;45.81;100218.36;1834964;78;20574;-54
2022/06/14 16:36:33;;;;;;;;;;;;;;;22.97;45.89;100226.84;1834636;78;20535;-55
2022/06/14 16:40:05;;;;;;;;;;;;;;;22.83;46.00;100234.47;1826549;78;20284;-56
2022/06/14 16:43:32;;;;;;;;;;;;;;;22.74;46.15;100249.41;1826659;78;20266;-56
2022/06/14 16:47:09;;;;;;;;;;;;;;;22.67;46.23;100258.55;1809747;78;20216;-56
2022/06/14 16:50:20;;;;;;;;;;;;;;;22.56;46.32;100262.30;1801470;79;20549;-55
2022/06/14 16:53:39;;;;;;;;;;;;;;;22.46;46.43;100264.89;1806330;79;20213;-56
2022/06/14 16:57:05;;;;;;;;;;;;;;;22.35;46.54;100270.02;1799773;79;20198;-55
2022/06/14 17:00:15;;;;;;;;;;;;;;;22.27;46.63;100270.98;1789043;80;20799;-54
2022/06/14 17:03:26;;;;;;;;;;;;;;;22.20;46.75;100277.58;1788917;79;20222;-55
2022/06/14 17:06:36;;;;;;;;;;;;;;;22.17;46.86;100282.28;1774081;81;20201;-55
2022/06/14 17:10:18;;;;;;;;;;;;;;;22.12;46.95;100290.55;1770782;80;20213;-55
2022/06/14 17:13:39;;;;;;;;;;;;;;;22.07;47.07;100304.41;1804236;78;20213;-56
2022/06/14 17:16:55;;;;;;;;;;;;;;;22.06;47.20;100304.13;1800051;79;20245;-55
2022/06/14 17:20:04;;;;;;;;;;;;;;;22.05;47.26;100302.44;1805560;79;20244;-56